createdAt,value
2022-08-17T00:02:25.369Z,14.02
2022-08-17T00:04:31.014Z,13.65
2022-08-17T00:06:35.767Z,14.23
2022-08-17T00:08:42.540Z,14.15
2022-08-17T00:10:47.596Z,14.77
2022-08-17T00:12:52.493Z,13.60
2022-08-17T00:14:56.966Z,14.20
2022-08-17T00:17:03.865Z,14.27
2022-08-17T00:19:13.993Z,13.27
2022-08-17T00:21:23.719Z,13.52
2022-08-17T00:23:30.112Z,15.50
2022-08-17T00:25:35.198Z,14.77
2022-08-17T00:27:39.473Z,14.13
2022-08-17T00:29:45.547Z,14.32
2022-08-17T00:31:50.175Z,14.50
2022-08-17T00:33:54.721Z,14.35
2022-08-17T00:36:01.549Z,14.38
2022-08-17T00:38:09.940Z,14.50
2022-08-17T00:40:16.399Z,14.30
2022-08-17T00:42:21.397Z,13.80
2022-08-17T00:44:30.352Z,13.57
2022-08-17T00:48:41.033Z,12.77
2022-08-17T00:50:51.567Z,14.18
2022-08-17T00:52:58.825Z,14.70
2022-08-17T00:55:03.969Z,14.50
2022-08-17T00:57:11.970Z,14.98
2022-08-17T00:59:21.893Z,13.82
2022-08-17T01:03:31.239Z,14.45
2022-08-17T01:05:42.081Z,13.82
2022-08-17T01:07:50.092Z,15.38
2022-08-17T01:09:56.321Z,13.82
2022-08-17T01:12:03.598Z,14.10
2022-08-17T01:14:09.012Z,13.27
2022-08-17T01:16:18.219Z,14.57
2022-08-17T01:18:22.668Z,15.15
2022-08-17T01:20:29.670Z,14.00
2022-08-17T01:22:35.521Z,13.30
2022-08-17T01:24:42.456Z,13.57
2022-08-17T01:26:47.655Z,13.98
2022-08-17T01:28:55.822Z,14.07
2022-08-17T01:31:05.701Z,14.50
2022-08-17T01:33:11.510Z,14.77
2022-08-17T01:35:15.872Z,13.95
2022-08-17T01:37:21.450Z,15.18
2022-08-17T01:39:31.117Z,14.65
2022-08-17T01:41:36.215Z,13.82
2022-08-17T01:43:45.578Z,12.73
2022-08-17T01:46:02.711Z,14.52
2022-08-17T01:48:08.342Z,12.90
2022-08-17T01:50:16.487Z,13.18
2022-08-17T01:52:23.856Z,13.77
2022-08-17T01:54:29.779Z,14.55
2022-08-17T01:56:36.995Z,14.70
2022-08-17T01:58:43.479Z,15.65
2022-08-17T02:01:00.924Z,13.90
2022-08-17T02:03:06.583Z,14.88
2022-08-17T02:05:10.962Z,15.00
2022-08-17T02:07:17.294Z,15.88
2022-08-17T02:09:23.427Z,15.30
2022-08-17T02:11:32.302Z,14.82
2022-08-17T02:13:38.090Z,16.27
2022-08-17T02:15:42.325Z,15.80
2022-08-17T02:17:46.678Z,15.85
2022-08-17T02:19:59.080Z,15.75
2022-08-17T02:22:03.372Z,14.45
2022-08-17T02:24:09.545Z,14.95
2022-08-17T02:26:25.551Z,14.50
2022-08-17T02:28:32.385Z,13.95
2022-08-17T02:31:01.725Z,15.00
2022-08-17T02:33:04.140Z,16.10
2022-08-17T02:35:11.284Z,15.77
2022-08-17T02:37:17.648Z,15.43
2022-08-17T02:39:21.996Z,16.40
2022-08-17T02:41:26.202Z,14.77
2022-08-17T02:43:32.495Z,15.95
2022-08-17T02:45:38.291Z,16.10
2022-08-17T02:47:42.835Z,14.15
2022-08-17T02:49:54.264Z,15.05
2022-08-17T02:52:00.253Z,15.35
2022-08-17T02:54:40.852Z,16.25
2022-08-17T02:56:29.040Z,15.90
2022-08-17T02:58:36.074Z,15.02
2022-08-17T03:00:44.101Z,16.20
2022-08-17T03:02:48.839Z,15.50
2022-08-17T03:04:53.197Z,14.38
2022-08-17T03:06:57.655Z,16.20
2022-08-17T03:09:02.175Z,15.05
2022-08-17T03:11:06.651Z,15.45
2022-08-17T03:13:12.804Z,14.85
2022-08-17T03:15:21.674Z,14.93
2022-08-17T03:17:25.967Z,15.68
2022-08-17T03:19:30.170Z,15.35
2022-08-17T03:21:34.447Z,13.70
2022-08-17T03:23:41.206Z,13.55
2022-08-17T03:25:46.804Z,13.57
2022-08-17T03:27:51.417Z,14.25
2022-08-17T03:29:56.378Z,13.13
2022-08-17T03:32:02.213Z,13.80
2022-08-17T03:34:06.448Z,12.85
2022-08-17T03:36:11.323Z,13.60
2022-08-17T03:38:17.488Z,14.00
2022-08-17T03:40:55.859Z,13.10
2022-08-17T03:42:47.316Z,13.38
2022-08-17T03:44:52.124Z,13.85
2022-08-17T03:47:20.128Z,13.48
2022-08-17T03:49:42.137Z,12.75
2022-08-17T03:52:03.971Z,14.48
2022-08-17T03:54:26.909Z,12.63
2022-08-17T03:56:46.393Z,14.50
2022-08-17T03:58:51.351Z,15.90
2022-08-17T04:00:57.055Z,13.63
2022-08-17T04:03:02.948Z,15.27
2022-08-17T04:05:07.996Z,13.30
2022-08-17T04:07:12.239Z,13.93
2022-08-17T04:09:16.456Z,12.68
2022-08-17T04:11:21.328Z,12.30
2022-08-17T04:13:25.770Z,14.65
2022-08-17T04:15:31.021Z,13.52
2022-08-17T04:17:35.255Z,12.52
2022-08-17T04:19:40.898Z,13.38
2022-08-17T04:21:45.199Z,12.90
2022-08-17T04:23:49.808Z,13.45
2022-08-17T04:25:54.168Z,13.95
2022-08-17T04:28:01.018Z,13.90
2022-08-17T04:30:07.411Z,12.77
2022-08-17T04:32:11.701Z,13.57
2022-08-17T04:34:15.949Z,12.75
2022-08-17T04:36:25.729Z,12.45
2022-08-17T04:38:31.831Z,12.75
2022-08-17T04:40:53.690Z,12.75
2022-08-17T04:43:03.044Z,11.95
2022-08-17T04:45:08.277Z,11.57
2022-08-17T04:47:13.203Z,12.38
2022-08-17T04:49:17.698Z,11.68
2022-08-17T04:51:26.388Z,12.23
2022-08-17T04:53:30.753Z,13.43
2022-08-17T04:55:35.037Z,12.18
2022-08-17T04:57:44.582Z,13.02
2022-08-17T04:59:49.318Z,11.68
2022-08-17T05:01:54.764Z,12.30
2022-08-17T05:04:02.394Z,12.60
2022-08-17T05:06:28.473Z,11.70
2022-08-17T05:08:32.685Z,12.02
2022-08-17T05:10:39.459Z,10.80
2022-08-17T05:12:57.863Z,10.75
2022-08-17T05:15:02.362Z,10.45
2022-08-17T05:17:11.283Z,10.40
2022-08-17T05:19:15.857Z,9.98
2022-08-17T05:21:20.666Z,9.88
2022-08-17T05:23:34.964Z,10.32
2022-08-17T05:25:49.108Z,11.38
2022-08-17T05:27:55.645Z,10.30
2022-08-17T05:30:02.493Z,10.50
2022-08-17T05:32:38.526Z,11.02
2022-08-17T05:34:36.708Z,10.68
2022-08-17T05:36:43.899Z,10.60
2022-08-17T05:38:50.692Z,10.52
2022-08-17T05:40:55.622Z,11.23
2022-08-17T05:43:07.893Z,10.73
2022-08-17T05:45:13.138Z,9.90
2022-08-17T05:47:31.418Z,9.85
2022-08-17T05:49:35.710Z,10.45
2022-08-17T05:52:03.101Z,10.48
2022-08-17T05:54:24.215Z,9.70
2022-08-17T05:56:47.870Z,9.77
2022-08-17T05:59:02.298Z,9.63
2022-08-17T06:01:17.004Z,10.88
2022-08-17T06:03:30.661Z,10.00
2022-08-17T06:05:59.430Z,11.00
2022-08-17T06:08:12.344Z,10.55
2022-08-17T06:10:25.446Z,10.30
2022-08-17T06:12:41.454Z,12.23
2022-08-17T06:14:59.036Z,11.20
2022-08-17T06:17:07.808Z,12.95
2022-08-17T06:19:16.786Z,11.73
2022-08-17T06:21:30.438Z,12.05
2022-08-17T06:23:40.613Z,12.30
2022-08-17T06:25:49.466Z,11.48
2022-08-17T06:27:59.310Z,11.68
2022-08-17T06:30:10.066Z,10.65
2022-08-17T06:32:16.668Z,10.70
2022-08-17T06:34:21.779Z,10.30
2022-08-17T06:36:41.254Z,10.20
2022-08-17T06:38:53.376Z,10.55
2022-08-17T06:41:10.351Z,11.80
2022-08-17T06:43:32.719Z,10.55
2022-08-17T06:45:39.129Z,11.93
2022-08-17T06:47:48.874Z,10.77
2022-08-17T06:49:59.397Z,11.10
2022-08-17T06:52:13.515Z,11.13
2022-08-17T06:54:43.227Z,13.63
2022-08-17T06:56:55.441Z,12.30
2022-08-17T06:59:01.045Z,10.65
2022-08-17T07:01:09.992Z,10.35
2022-08-17T07:03:21.704Z,10.05
2022-08-17T07:05:33.366Z,10.68
2022-08-17T07:07:58.255Z,11.43
2022-08-17T07:10:02.940Z,11.07
2022-08-17T07:12:16.298Z,10.35
2022-08-17T07:14:36.850Z,10.30
2022-08-17T07:16:44.107Z,10.77
2022-08-17T07:18:51.680Z,9.20
2022-08-17T07:21:01.095Z,9.30
2022-08-17T07:23:10.720Z,9.45
2022-08-17T07:25:20.784Z,10.20
2022-08-17T07:27:59.020Z,9.85
2022-08-17T07:30:45.507Z,9.45
2022-08-17T07:33:20.516Z,9.88
2022-08-17T07:35:41.260Z,9.80
2022-08-17T07:37:54.172Z,9.07
2022-08-17T07:40:16.979Z,9.10
2022-08-17T07:42:24.485Z,8.88
2022-08-17T07:44:47.960Z,9.50
2022-08-17T07:47:19.148Z,8.95
2022-08-17T07:49:37.594Z,9.57
2022-08-17T07:52:24.146Z,8.70
2022-08-17T07:54:31.787Z,9.00
2022-08-17T07:56:44.191Z,9.10
2022-08-17T07:58:49.224Z,9.93
2022-08-17T08:01:13.302Z,9.05
2022-08-17T08:03:27.362Z,10.05
2022-08-17T08:06:02.384Z,8.98
2022-08-17T08:08:28.464Z,10.18
2022-08-17T08:10:36.134Z,9.13
2022-08-17T08:12:44.025Z,8.68
2022-08-17T08:14:56.497Z,8.27
2022-08-17T08:17:06.814Z,8.30
2022-08-17T08:19:20.903Z,8.40
2022-08-17T08:21:34.685Z,8.23
2022-08-17T08:23:47.627Z,8.23
2022-08-17T08:26:01.709Z,9.00
2022-08-17T08:28:19.940Z,8.63
2022-08-17T08:30:28.352Z,8.07
2022-08-17T08:33:08.716Z,8.15
2022-08-17T08:35:22.789Z,8.80
2022-08-17T08:37:43.800Z,8.70
2022-08-17T08:40:15.776Z,8.65
2022-08-17T08:42:30.252Z,8.30
2022-08-17T08:45:00.321Z,8.00
2022-08-17T08:47:14.557Z,7.70
2022-08-17T08:50:37.301Z,7.97
2022-08-17T08:52:34.176Z,7.95
2022-08-17T08:54:46.492Z,8.07
2022-08-17T08:57:22.216Z,7.60
2022-08-17T08:59:28.266Z,8.30
2022-08-17T09:01:38.997Z,7.60
2022-08-17T09:04:26.084Z,8.50
2022-08-17T09:06:47.081Z,7.63
2022-08-17T09:09:01.801Z,7.55
2022-08-17T09:11:13.543Z,7.25
2022-08-17T09:13:45.016Z,8.95
2022-08-17T09:15:58.259Z,7.20
2022-08-17T09:19:00.954Z,7.47
2022-08-17T09:20:40.642Z,7.22
2022-08-17T09:22:54.409Z,8.23
2022-08-17T09:25:05.101Z,7.53
2022-08-17T09:27:14.742Z,7.18
2022-08-17T09:29:24.493Z,7.30
2022-08-17T09:31:47.034Z,7.50
2022-08-17T09:33:55.595Z,6.95
2022-08-17T09:36:04.171Z,7.82
2022-08-17T09:38:20.866Z,7.30
2022-08-17T09:40:28.964Z,7.10
2022-08-17T09:42:41.009Z,7.63
2022-08-17T09:44:57.968Z,7.13
2022-08-17T09:47:11.762Z,7.15
2022-08-17T09:49:32.724Z,7.07
2022-08-17T09:51:43.776Z,7.18
2022-08-17T09:53:50.009Z,7.97
2022-08-17T09:56:21.768Z,7.78
2022-08-17T09:58:34.805Z,7.28
2022-08-17T10:00:46.297Z,7.75
2022-08-17T10:03:16.459Z,7.82
2022-08-17T10:05:30.072Z,8.10
2022-08-17T10:07:42.392Z,7.57
2022-08-17T10:10:00.185Z,7.45
2022-08-17T10:12:21.714Z,7.63
2022-08-17T10:14:44.679Z,7.38
2022-08-17T10:17:04.325Z,7.75
2022-08-17T10:19:19.728Z,7.90
2022-08-17T10:21:43.515Z,7.60
2022-08-17T10:24:09.729Z,7.65
2022-08-17T10:26:22.234Z,7.75
2022-08-17T10:28:46.611Z,7.90
2022-08-17T10:31:34.155Z,7.80
2022-08-17T10:33:51.358Z,8.15
2022-08-17T10:36:29.887Z,7.75
2022-08-17T10:38:50.988Z,7.85
2022-08-17T10:41:40.680Z,8.10
2022-08-17T10:44:44.065Z,8.52
2022-08-17T10:47:28.924Z,8.05
2022-08-17T10:49:48.139Z,8.10
2022-08-17T10:52:05.411Z,7.43
2022-08-17T10:54:57.999Z,7.28
2022-08-17T10:57:44.563Z,7.57
2022-08-17T11:00:41.883Z,7.78
2022-08-17T11:02:51.232Z,7.18
2022-08-17T11:05:41.494Z,7.35
2022-08-17T11:08:29.267Z,7.38
2022-08-17T11:11:15.946Z,7.97
2022-08-17T11:13:43.306Z,8.20
2022-08-17T11:16:34.748Z,8.05
2022-08-17T11:19:18.136Z,8.13
2022-08-17T11:22:37.362Z,8.30
2022-08-17T11:25:37.484Z,8.57
2022-08-17T11:27:54.597Z,8.55
2022-08-17T11:30:14.772Z,7.80
2022-08-17T11:32:54.499Z,8.05
2022-08-17T11:35:30.727Z,7.35
2022-08-17T11:38:14.109Z,8.43
2022-08-17T11:40:56.018Z,7.13
2022-08-17T11:48:26.787Z,7.45
2022-08-17T11:51:40.833Z,7.55
2022-08-17T11:55:34.981Z,7.38
2022-08-17T11:59:28.606Z,7.00
2022-08-17T12:02:49.284Z,8.02
2022-08-17T12:06:12.488Z,7.10
2022-08-17T12:08:56.517Z,6.93
2022-08-17T12:11:56.277Z,7.95
2022-08-17T12:15:08.916Z,7.78
2022-08-17T12:18:44.092Z,7.60
2022-08-17T12:29:45.135Z,7.90
2022-08-17T12:32:18.817Z,8.00
2022-08-17T12:35:01.506Z,6.70
2022-08-17T12:38:26.845Z,7.20
2022-08-17T12:45:54.216Z,7.20
2022-08-17T12:49:44.617Z,6.38
2022-08-17T12:53:39.781Z,6.93
2022-08-17T12:57:31.457Z,6.68
2022-08-17T12:59:56.870Z,6.43
2022-08-17T13:03:12.804Z,5.97
2022-08-17T13:06:03.155Z,4.72
2022-08-17T13:14:54.204Z,4.18
2022-08-17T13:17:49.953Z,4.70
2022-08-17T13:20:02.019Z,4.00
2022-08-17T13:22:56.513Z,4.23
2022-08-17T13:25:27.057Z,4.55
2022-08-17T13:27:41.492Z,4.63
2022-08-17T13:32:43.928Z,5.15
2022-08-17T13:35:29.766Z,6.20
2022-08-17T13:37:55.895Z,7.10
2022-08-17T13:40:43.524Z,6.53
2022-08-17T13:43:13.235Z,6.78
2022-08-17T13:45:50.842Z,6.65
2022-08-17T13:48:15.104Z,6.88
2022-08-17T13:50:30.297Z,6.57
2022-08-17T13:53:16.478Z,6.15
2022-08-17T13:56:37.279Z,6.72
2022-08-17T13:59:53.224Z,6.80
2022-08-17T14:02:19.816Z,6.00
2022-08-17T14:04:46.661Z,6.35
2022-08-17T14:06:58.669Z,5.93
2022-08-17T14:09:24.694Z,5.80
2022-08-17T14:12:12.011Z,6.05
2022-08-17T14:14:43.558Z,6.03
2022-08-17T14:17:19.411Z,5.93
2022-08-17T14:20:11.487Z,5.55
2022-08-17T14:22:44.041Z,5.25
2022-08-17T14:25:34.005Z,5.18
2022-08-17T14:28:25.732Z,4.78
2022-08-17T14:31:37.428Z,4.70
2022-08-17T14:34:08.594Z,5.45
2022-08-17T14:36:49.957Z,5.03
2022-08-17T14:40:19.751Z,4.63
2022-08-17T14:43:12.423Z,4.68
2022-08-17T14:48:46.556Z,4.90
2022-08-17T14:50:58.125Z,4.95
2022-08-17T14:56:31.685Z,4.82
2022-08-17T14:59:54.801Z,5.00
2022-08-17T15:02:53.418Z,5.25
2022-08-17T15:05:51.694Z,5.97
2022-08-17T15:08:37.886Z,6.03
2022-08-17T15:12:01.271Z,6.68
2022-08-17T15:16:04.971Z,6.38
2022-08-17T15:19:11.745Z,6.13
2022-08-17T15:23:52.640Z,6.65
2022-08-17T15:40:11.603Z,6.40
2022-08-17T15:43:44.478Z,6.07
2022-08-17T15:55:23.432Z,13.07
2022-08-17T15:59:33.702Z,11.20
2022-08-17T16:42:48.995Z,12.30
2022-08-17T16:51:02.922Z,10.32
2022-08-17T16:55:04.659Z,8.48
2022-08-17T17:02:35.603Z,7.82
2022-08-17T17:10:19.250Z,6.75
2022-08-17T17:13:52.826Z,7.10
2022-08-17T17:21:05.817Z,7.35
2022-08-17T17:23:28.202Z,7.55
2022-08-17T17:25:39.743Z,7.60
2022-08-17T17:27:52.212Z,7.90
2022-08-17T17:30:08.738Z,8.65
2022-08-17T17:32:20.971Z,8.13
2022-08-17T17:34:30.318Z,8.27
2022-08-17T17:36:40.866Z,8.40
2022-08-17T17:38:50.214Z,7.88
2022-08-17T17:41:02.349Z,8.52
2022-08-17T17:43:35.243Z,8.40
2022-08-17T17:45:44.833Z,10.18
2022-08-17T17:47:52.787Z,9.85
2022-08-17T17:49:57.210Z,8.88
2022-08-17T17:52:10.157Z,7.45
2022-08-17T17:54:32.546Z,7.35
2022-08-17T17:56:44.798Z,6.75
2022-08-17T17:58:56.734Z,6.35
2022-08-17T18:01:20.075Z,7.72
2022-08-17T18:03:32.987Z,8.02
2022-08-17T18:05:57.546Z,7.35
2022-08-17T18:08:13.100Z,7.45
2022-08-17T18:10:30.429Z,7.13
2022-08-17T18:12:44.749Z,7.43
2022-08-17T18:15:02.810Z,7.60
2022-08-17T18:17:10.717Z,8.25
2022-08-17T18:19:19.964Z,9.40
2022-08-17T18:21:27.668Z,9.63
2022-08-17T18:23:33.144Z,9.90
2022-08-17T18:25:44.656Z,10.07
2022-08-17T18:27:52.441Z,10.65
2022-08-17T18:29:58.227Z,11.20
2022-08-17T18:32:29.205Z,10.50
2022-08-17T18:34:47.379Z,12.07
2022-08-17T18:36:52.760Z,13.52
2022-08-17T18:39:12.941Z,11.55
2022-08-17T18:41:30.696Z,10.25
2022-08-17T18:43:53.334Z,8.98
2022-08-17T18:46:17.092Z,8.10
2022-08-17T18:48:50.686Z,7.70
2022-08-17T18:50:57.238Z,8.10
2022-08-17T18:53:38.271Z,11.60
2022-08-17T18:55:42.761Z,10.75
2022-08-17T18:57:49.622Z,9.43
2022-08-17T18:59:54.023Z,10.55
2022-08-17T19:02:13.846Z,9.18
2022-08-17T19:04:35.853Z,9.48
2022-08-17T19:06:40.789Z,11.02
2022-08-17T19:08:45.316Z,9.48
2022-08-17T19:10:52.747Z,7.90
2022-08-17T19:13:13.070Z,7.78
2022-08-17T19:15:28.126Z,7.90
2022-08-17T19:17:39.194Z,7.55
2022-08-17T19:19:53.574Z,8.27
2022-08-17T19:22:04.474Z,8.13
2022-08-17T19:24:19.451Z,8.05
2022-08-17T19:26:51.026Z,9.05
2022-08-17T19:28:56.968Z,9.77
2022-08-17T19:31:05.843Z,8.10
2022-08-17T19:33:10.440Z,9.10
2022-08-17T19:35:28.236Z,7.72
2022-08-17T19:37:40.267Z,7.63
2022-08-17T19:39:54.647Z,8.18
2022-08-17T19:42:04.374Z,8.18
2022-08-17T19:44:47.097Z,8.73
2022-08-17T19:47:00.846Z,9.68
2022-08-17T19:49:15.255Z,7.82
2022-08-17T19:51:30.639Z,8.63
2022-08-17T19:54:04.455Z,8.82
2022-08-17T19:56:16.255Z,8.30
2022-08-17T19:58:33.191Z,11.85
2022-08-17T20:00:41.356Z,10.35
2022-08-17T20:02:55.809Z,10.32
2022-08-17T20:05:06.344Z,8.52
2022-08-17T20:07:18.365Z,9.40
2022-08-17T20:09:33.577Z,8.75
2022-08-17T20:11:46.558Z,9.32
2022-08-17T20:13:59.820Z,10.38
2022-08-17T20:16:05.405Z,11.48
2022-08-17T20:18:18.595Z,9.75
2022-08-17T20:20:32.054Z,9.10
2022-08-17T20:22:51.797Z,8.82
2022-08-17T20:25:08.517Z,9.18
2022-08-17T20:27:21.722Z,10.35
2022-08-17T20:29:37.306Z,8.32
2022-08-17T20:31:49.550Z,9.50
2022-08-17T20:33:53.864Z,9.10
2022-08-17T20:36:18.214Z,8.50
2022-08-17T20:38:41.841Z,8.32
2022-08-17T20:41:16.894Z,8.50
2022-08-17T20:43:45.998Z,9.10
2022-08-17T20:46:07.499Z,8.55
2022-08-17T20:48:37.396Z,8.18
2022-08-17T20:50:46.847Z,8.52
2022-08-17T20:52:53.798Z,9.20
2022-08-17T20:54:59.501Z,9.07
2022-08-17T20:57:09.197Z,9.38
2022-08-17T20:59:55.338Z,10.77
2022-08-17T21:02:19.102Z,9.75
2022-08-17T21:04:46.352Z,10.20
2022-08-17T21:07:29.145Z,9.60
2022-08-17T21:09:33.538Z,9.43
2022-08-17T21:12:05.016Z,9.85
2022-08-17T21:14:17.774Z,10.88
2022-08-17T21:16:50.453Z,9.77
2022-08-17T21:19:16.945Z,9.48
2022-08-17T21:21:29.015Z,10.48
2022-08-17T21:23:47.586Z,10.07
2022-08-17T21:26:03.905Z,9.80
2022-08-17T21:28:20.352Z,9.30
2022-08-17T21:30:47.741Z,10.35
2022-08-17T21:33:21.571Z,9.50
2022-08-17T21:35:31.111Z,9.68
2022-08-17T21:37:43.568Z,9.88
2022-08-17T21:39:51.941Z,9.27
2022-08-17T21:41:57.746Z,9.15
2022-08-17T21:44:21.806Z,10.45
2022-08-17T21:46:31.546Z,9.40
2022-08-17T21:48:43.928Z,9.90
2022-08-17T21:50:59.596Z,9.65
2022-08-17T21:53:05.392Z,9.80
2022-08-17T21:55:29.159Z,9.48
2022-08-17T21:57:35.687Z,10.02
2022-08-17T21:59:43.782Z,9.50
2022-08-17T22:01:58.002Z,9.85
2022-08-17T22:04:05.668Z,9.68
2022-08-17T22:06:25.295Z,10.35
2022-08-17T22:08:29.651Z,9.38
2022-08-17T22:10:37.056Z,10.15
2022-08-17T22:12:42.745Z,10.45
2022-08-17T22:15:00.487Z,10.13
2022-08-17T22:17:17.700Z,9.90
2022-08-17T22:19:22.293Z,9.68
2022-08-17T22:21:27.205Z,9.75
2022-08-17T22:24:03.221Z,10.45
2022-08-17T22:26:12.710Z,10.70
2022-08-17T22:28:37.639Z,10.38
2022-08-17T22:31:01.275Z,9.82
2022-08-17T22:33:31.478Z,10.82
2022-08-17T22:35:43.428Z,10.32
2022-08-17T22:37:47.776Z,10.70
2022-08-17T22:39:59.976Z,10.15
2022-08-17T22:42:04.565Z,10.20
2022-08-17T22:44:23.216Z,10.93
2022-08-17T22:46:30.300Z,10.27
2022-08-17T22:48:35.495Z,9.90
2022-08-17T22:50:39.913Z,10.35
2022-08-17T22:52:59.604Z,10.43
2022-08-17T22:55:30.756Z,10.23
2022-08-17T22:57:54.021Z,10.85
2022-08-17T22:59:58.778Z,10.73
2022-08-17T23:02:21.111Z,10.60
2022-08-17T23:04:34.087Z,10.65
2022-08-17T23:06:40.253Z,10.18
2022-08-17T23:08:49.814Z,10.90
2022-08-17T23:10:55.459Z,10.63
2022-08-17T23:13:00.597Z,10.90
2022-08-17T23:15:07.051Z,10.63
2022-08-17T23:17:11.378Z,11.13
2022-08-17T23:19:22.098Z,10.73
2022-08-17T23:21:30.178Z,10.82
2022-08-17T23:23:37.144Z,10.25
2022-08-17T23:25:44.605Z,10.95
2022-08-17T23:27:50.806Z,11.00
2022-08-17T23:29:55.794Z,11.55
2022-08-17T23:32:01.494Z,10.52
2022-08-17T23:34:09.086Z,10.57
2022-08-17T23:36:16.495Z,10.63
2022-08-17T23:38:20.897Z,11.05
2022-08-17T23:40:25.405Z,10.60
2022-08-17T23:42:30.604Z,10.65
2022-08-17T23:44:35.216Z,11.27
2022-08-17T23:46:40.811Z,10.55
2022-08-17T23:48:45.911Z,10.77
2022-08-17T23:50:51.740Z,10.45
2022-08-17T23:52:57.498Z,10.38
2022-08-17T23:55:01.755Z,11.05
2022-08-17T23:57:09.252Z,10.50
2022-08-17T23:59:14.990Z,10.90
